createdAt,value
2022-09-26T00:01:34.592Z,226.56881
2022-09-26T00:06:36.409Z,237.33333
2022-09-26T00:11:37.987Z,244.4878
2022-09-26T00:16:39.650Z,244.4878
2022-09-26T00:21:41.131Z,245.96078
2022-09-26T00:26:42.536Z,240.15385
2022-09-26T00:31:44.134Z,234.56604
2022-09-26T00:36:45.575Z,252
2022-09-26T00:41:47.047Z,245.96078
2022-09-26T00:46:48.700Z,243.02913
2022-09-26T00:51:50.190Z,253.54774
2022-09-26T00:56:51.667Z,227.87097
2022-09-26T01:01:53.390Z,219
2022-09-26T01:06:55.139Z,206.12766
2022-09-26T01:11:56.815Z,198.54545
2022-09-26T01:16:59.627Z,202.82353
2022-09-26T01:22:01.382Z,200.66667
2022-09-26T01:27:03.223Z,190.4
2022-09-26T01:32:04.907Z,187.47826
2022-09-26T01:37:06.704Z,187.47826
2022-09-26T01:42:08.617Z,181.83784
2022-09-26T01:47:10.832Z,186.51969
2022-09-26T01:52:12.462Z,186.51969
2022-09-26T01:57:14.104Z,180.92308
2022-09-26T02:02:15.917Z,196.45902
2022-09-26T02:07:17.614Z,191.38956
2022-09-26T02:12:19.371Z,181.83784
2022-09-26T02:17:21.980Z,179.1145
2022-09-26T02:27:24.116Z,192.3871
2022-09-26T02:32:25.914Z,187.47826
2022-09-26T02:37:27.626Z,197.49794
2022-09-26T02:42:29.353Z,176.45283
2022-09-26T02:47:32.146Z,162.43972
2022-09-26T02:52:33.868Z,172.14815
2022-09-26T02:57:35.601Z,180.01533
2022-09-26T03:02:37.361Z,186.51969
2022-09-26T03:07:38.814Z,150.71141
2022-09-26T03:12:40.464Z,212.99563
2022-09-26T03:22:52.706Z,329
2022-09-26T03:27:54.417Z,380.87943
2022-09-26T03:32:56.059Z,384
2022-09-26T03:37:57.502Z,396.94118
2022-09-26T03:42:59.093Z,390.37681
2022-09-26T03:48:00.646Z,371.77778
2022-09-26T03:53:02.415Z,365.91781
2022-09-26T03:58:03.865Z,444.81301
2022-09-26T04:03:05.625Z,410.66667
2022-09-26T04:08:07.249Z,351.94702
2022-09-26T04:13:08.715Z,324.24691
2022-09-26T04:18:10.217Z,310.66667
2022-09-26T04:23:12.015Z,183.68872
2022-09-26T04:28:13.492Z,164.78853
2022-09-26T04:33:15.120Z,164
2022-09-26T04:38:16.642Z,176.45283
2022-09-26T04:43:18.077Z,156.41379
2022-09-26T04:48:19.548Z,160.90141
2022-09-26T04:53:21.527Z,178.22053
2022-09-26T04:58:23.003Z,201.74059
2022-09-26T05:03:24.545Z,201.74059
2022-09-26T05:08:26.429Z,162.43972
2022-09-26T05:13:27.985Z,132.95706
2022-09-26T05:18:29.737Z,140.80511
2022-09-26T05:23:31.424Z,173.85075
2022-09-26T05:28:32.940Z,174.71161
2022-09-26T05:33:34.754Z,144
2022-09-26T05:38:36.310Z,157.14879
2022-09-26T05:43:38.038Z,135.90031
2022-09-26T05:48:39.494Z,115.58774
2022-09-26T05:53:41.205Z,148.65116
2022-09-26T05:58:42.777Z,171.30627
2022-09-26T06:03:44.222Z,162.43972
2022-09-26T06:08:45.820Z,185.56863
2022-09-26T06:13:47.298Z,192.3871
2022-09-26T06:18:48.739Z,198.54545
2022-09-26T06:23:50.466Z,217.77778
2022-09-26T06:28:51.929Z,201.74059
2022-09-26T06:33:53.382Z,196.45902
2022-09-26T06:38:55.017Z,216.56637
2022-09-26T06:43:56.670Z,208.37768
2022-09-26T06:48:58.161Z,202.82353
2022-09-26T06:54:00.133Z,225.27854
2022-09-26T06:59:01.847Z,421.51938
2022-09-26T07:04:03.593Z,444.81301
2022-09-26T07:09:08.700Z,414.22901
2022-09-26T07:14:13.753Z,479.65217
2022-09-26T07:19:15.562Z,479.65217
2022-09-26T07:24:17.723Z,489.13274
2022-09-26T07:29:19.517Z,530.66667
2022-09-26T07:34:21.267Z,599.31915
2022-09-26T07:39:23.132Z,494
2022-09-26T07:49:56.670Z,489.13274
2022-09-26T07:54:58.885Z,536.30769
2022-09-26T08:00:00.509Z,686.16867
2022-09-26T08:05:02.291Z,585.66667
2022-09-26T08:10:04.005Z,592.42105
2022-09-26T08:15:05.779Z,542.05825
2022-09-26T08:20:07.567Z,636.13483
2022-09-26T08:25:09.654Z,547.92157
2022-09-26T08:30:11.306Z,530.66667
2022-09-26T08:35:12.752Z,542.05825
2022-09-26T08:40:14.205Z,660.27907
2022-09-26T08:45:15.803Z,572.57143
2022-09-26T08:50:17.239Z,585.66667
2022-09-26T08:55:19.018Z,592.42105
2022-09-26T09:00:20.680Z,686.16867
2022-09-26T09:05:22.077Z,733.74359
2022-09-26T09:10:23.862Z,877.33333
2022-09-26T09:15:26.461Z,787.83562
2022-09-26T09:20:28.245Z,1044
2022-09-26T09:25:29.985Z,970.66667
2022-09-26T09:30:31.455Z,863.40299
2022-09-26T09:35:32.995Z,953.83607
2022-09-26T09:40:34.686Z,754.52632
2022-09-26T09:45:36.362Z,877.33333
2022-09-26T09:50:37.804Z,988.0678
2022-09-26T09:55:39.525Z,921.77778
2022-09-26T10:00:41.024Z,937.54839
2022-09-26T10:05:42.579Z,765.33333
2022-09-26T10:10:44.037Z,1006.06897
2022-09-26T10:15:45.824Z,1084.74074
2022-09-26T10:20:47.595Z,1176
2022-09-26T10:25:50.292Z,1024.70175
2022-09-26T10:30:52.065Z,1128.61538
2022-09-26T10:35:53.851Z,1446.43902
2022-09-26T10:40:55.599Z,1176
2022-09-26T10:45:57.357Z,1312.88889
2022-09-26T10:50:58.973Z,1064
2022-09-26T10:56:01.285Z,1608.86486
2022-09-26T11:01:02.837Z,1128.61538
2022-09-26T11:06:04.310Z,1128.61538
2022-09-26T11:11:05.791Z,1227.33333
2022-09-26T11:16:07.707Z,1084.74074
2022-09-26T11:21:23.268Z,906.5
2022-09-26T11:26:31.147Z,1084.74074
2022-09-26T11:31:32.879Z,1128.61538
2022-09-26T11:36:34.683Z,1044
2022-09-26T11:41:36.749Z,1084.74074
2022-09-26T11:46:38.551Z,1344
2022-09-26T11:51:40.051Z,1344
2022-09-26T11:56:42.168Z,1344
2022-09-26T12:01:43.746Z,1810.66667
2022-09-26T12:06:45.227Z,1869
2022-09-26T12:11:46.782Z,1810.66667
2022-09-26T12:16:48.245Z,1869
2022-09-26T12:21:49.951Z,1704
2022-09-26T12:26:51.932Z,2144
2022-09-26T12:31:53.483Z,2068.13793
2022-09-26T12:36:55.347Z,1810.66667
2022-09-26T12:41:57.109Z,2068.13793
2022-09-26T12:46:59.139Z,1446.43902
2022-09-26T12:52:00.804Z,2510.66667
2022-09-26T12:57:02.735Z,2068.13793
2022-09-26T13:02:04.538Z,2144
2022-09-26T13:07:18.874Z,2622.26087
2022-09-26T13:12:21.728Z,1410.66667
2022-09-26T13:17:23.500Z,1755.76471
2022-09-26T13:22:25.230Z,2068.13793
2022-09-26T13:27:27.919Z,3024
2022-09-26T13:32:29.696Z,3794
2022-09-26T13:37:31.545Z,3024
2022-09-26T13:42:33.340Z,3794
2022-09-26T13:47:35.078Z,2744
2022-09-26T13:52:36.747Z,3567.52941
2022-09-26T13:57:38.748Z,2225.48148
2022-09-26T14:02:40.270Z,3024
2022-09-26T14:07:41.896Z,2622.26087
2022-09-26T14:12:43.469Z,2877.33333
2022-09-26T14:17:44.911Z,2313.23077
2022-09-26T14:22:46.490Z,2744
2022-09-26T14:27:48.383Z,2144
2022-09-26T14:32:49.821Z,2622.26087
2022-09-26T14:37:51.273Z,2877.33333
2022-09-26T14:42:52.900Z,2225.48148
2022-09-26T14:47:54.353Z,1997.33333
2022-09-26T14:52:55.818Z,2068.13793
2022-09-26T14:57:57.550Z,1997.33333
2022-09-26T15:03:01.304Z,2408
2022-09-26T15:08:03.274Z,1931.09677
2022-09-26T15:13:05.273Z,1755.76471
2022-09-26T15:18:07.029Z,2068.13793
2022-09-26T15:23:08.782Z,1376.55814
2022-09-26T15:28:10.584Z,2510.66667
2022-09-26T15:33:16.126Z,1344
2022-09-26T15:38:17.942Z,1344
2022-09-26T15:43:19.395Z,1344
2022-09-26T15:48:20.926Z,787.83562
2022-09-26T15:53:22.428Z,787.83562
2022-09-26T15:58:24.153Z,479.65217
2022-09-26T16:03:25.657Z,863.40299
2022-09-26T16:08:27.413Z,744
2022-09-26T16:13:29.097Z,686.16867
2022-09-26T16:18:30.883Z,384
2022-09-26T16:23:32.535Z,384
2022-09-26T16:28:34.629Z,396.94118
2022-09-26T16:33:36.373Z,390.37681
2022-09-26T16:38:38.207Z,354.66667
2022-09-26T16:43:40.010Z,354.66667
2022-09-26T16:48:41.735Z,338.87179
2022-09-26T16:53:43.190Z,312.86228
2022-09-26T16:58:44.798Z,317.33333
2022-09-26T17:03:46.629Z,300.06936
2022-09-26T17:08:48.196Z,304.23392
2022-09-26T17:13:49.599Z,319.60976
2022-09-26T17:18:51.001Z,329
2022-09-26T17:23:52.849Z,304.23392
2022-09-26T17:28:54.822Z,294
2022-09-26T17:33:56.568Z,263.17098
2022-09-26T17:38:58.321Z,248.9505
2022-09-26T17:44:00.298Z,252
2022-09-26T17:49:02.198Z,241.58454
2022-09-26T17:54:03.978Z,264.83333
2022-09-26T17:59:05.808Z,255.11111
2022-09-26T18:04:07.588Z,238.73684
2022-09-26T18:09:09.682Z,261.52577
2022-09-26T18:14:11.578Z,241.58454
2022-09-26T18:19:13.323Z,215.36564
2022-09-26T18:24:19.271Z,198.54545
2022-09-26T18:34:31.943Z,231.85047
2022-09-26T18:39:33.391Z,268.21053
2022-09-26T18:44:35.274Z,237.33333
2022-09-26T18:49:36.810Z,248.9505
2022-09-26T18:54:38.347Z,231.85047
2022-09-26T18:59:39.813Z,244.4878
2022-09-26T19:04:41.491Z,282.46154
2022-09-26T19:09:43.075Z,264.83333
2022-09-26T19:14:44.637Z,247.44828
2022-09-26T19:19:46.218Z,243.02913
2022-09-26T19:24:47.895Z,241.58454
2022-09-26T19:29:49.350Z,245.96078
2022-09-26T19:34:50.975Z,263.17098
2022-09-26T19:39:52.468Z,243.02913
2022-09-26T19:44:53.960Z,237.33333
2022-09-26T19:49:55.424Z,222.73303
2022-09-26T19:54:56.874Z,209.51724
2022-09-26T19:59:58.319Z,215.36564
2022-09-26T20:05:00.040Z,205.01695
2022-09-26T20:10:01.700Z,200.66667
2022-09-26T20:15:03.176Z,188.44444
2022-09-26T20:20:04.709Z,172.99628
2022-09-26T20:25:06.240Z,163.21708
2022-09-26T20:30:07.770Z,152.81356
2022-09-26T20:35:09.360Z,145.30719
2022-09-26T20:40:10.906Z,142.07074
2022-09-26T20:45:12.345Z,144.65147
2022-09-26T20:50:13.888Z,142.07074
2022-09-26T20:55:15.326Z,140.80511
2022-09-26T21:00:17.154Z,133.53846
2022-09-26T21:05:18.896Z,128.98498
2022-09-26T21:10:20.540Z,127.8806
2022-09-26T21:15:21.990Z,123.06977
2022-09-26T21:20:23.518Z,111.84741
2022-09-26T21:25:25.072Z,102.35476
2022-09-26T21:30:26.659Z,96.47525
2022-09-26T21:35:28.825Z,90.66667
2022-09-26T21:40:30.389Z,84.63927
2022-09-26T21:45:31.994Z,80.88889
2022-09-26T21:50:33.597Z,78.79212
2022-09-26T21:55:35.086Z,78.20479
2022-09-26T22:00:36.545Z,76.75862
2022-09-26T22:05:39.052Z,76.75862
2022-09-26T22:10:40.509Z,77.04536
2022-09-26T22:15:42.173Z,78.20479
2022-09-26T22:20:43.646Z,79.38462
2022-09-26T22:25:45.084Z,75.06383
2022-09-26T22:30:46.665Z,72.60125
2022-09-26T22:35:48.355Z,74.78556
2022-09-26T22:40:50.159Z,76.18884
2022-09-26T22:45:51.704Z,77.04536
2022-09-26T22:50:53.200Z,82.11659
2022-09-26T22:55:54.612Z,89.97156
2022-09-26T23:00:56.096Z,103.17313
2022-09-26T23:05:58.256Z,109.14745
2022-09-26T23:10:59.701Z,111.3913
2022-09-26T23:16:01.247Z,117.03371
2022-09-26T23:21:02.929Z,112.30601
2022-09-26T23:26:04.381Z,97.23383
2022-09-26T23:31:05.966Z,106.10526
2022-09-26T23:36:07.688Z,117.03371
2022-09-26T23:41:09.163Z,120
2022-09-26T23:46:10.831Z,121.52161
2022-09-26T23:51:12.323Z,123.59184
2022-09-26T23:56:13.882Z,123.59184
